sensor_id;sensor_type;location;lat;lon;timestamp;pressure;altitude;pressure_sealevel;temperature;humidity
70976;BME280;58635;51.198;6.010;2023-03-23T00:00:53;100199.69;;;15.77;58.02
70976;BME280;58635;51.198;6.010;2023-03-23T00:03:20;100200.22;;;15.79;58.22
70976;BME280;58635;51.198;6.010;2023-03-23T00:05:47;100192.66;;;15.77;58.19
70976;BME280;58635;51.198;6.010;2023-03-23T00:08:19;100187.19;;;15.79;58.14
70976;BME280;58635;51.198;6.010;2023-03-23T00:10:50;100187.44;;;15.77;58.17
70976;BME280;58635;51.198;6.010;2023-03-23T00:13:25;100188.22;;;15.78;58.17
70976;BME280;58635;51.198;6.010;2023-03-23T00:15:51;100190.56;;;15.79;58.27
70976;BME280;58635;51.198;6.010;2023-03-23T00:18:22;100184.34;;;15.81;58.09
70976;BME280;58635;51.198;6.010;2023-03-23T00:20:57;100192.16;;;15.81;58.39
70976;BME280;58635;51.198;6.010;2023-03-23T00:23:24;100194.47;;;15.77;58.12
70976;BME280;58635;51.198;6.010;2023-03-23T00:25:55;100178.56;;;15.78;58.27
70976;BME280;58635;51.198;6.010;2023-03-23T00:28:25;100184.56;;;15.79;58.19
70976;BME280;58635;51.198;6.010;2023-03-23T00:31:09;100183.53;;;15.80;58.24
70976;BME280;58635;51.198;6.010;2023-03-23T00:33:36;100167.09;;;15.79;58.25
70976;BME280;58635;51.198;6.010;2023-03-23T00:36:09;100166.06;;;15.81;58.29
70976;BME280;58635;51.198;6.010;2023-03-23T00:38:36;100166.31;;;15.79;58.50
70976;BME280;58635;51.198;6.010;2023-03-23T00:41:01;100176.50;;;15.81;58.47
70976;BME280;58635;51.198;6.010;2023-03-23T00:43:30;100180.94;;;15.80;58.44
70976;BME280;58635;51.198;6.010;2023-03-23T00:45:56;100186.94;;;15.81;58.44
70976;BME280;58635;51.198;6.010;2023-03-23T00:48:23;100187.72;;;15.81;58.23
70976;BME280;58635;51.198;6.010;2023-03-23T00:50:50;100178.63;;;15.84;58.46
70976;BME280;58635;51.198;6.010;2023-03-23T00:53:16;100177.84;;;15.83;58.45
70976;BME280;58635;51.198;6.010;2023-03-23T00:55:43;100181.22;;;15.84;58.48
70976;BME280;58635;51.198;6.010;2023-03-23T00:58:10;100176.81;;;15.84;58.40
70976;BME280;58635;51.198;6.010;2023-03-23T01:00:36;100192.44;;;15.84;58.52
70976;BME280;58635;51.198;6.010;2023-03-23T01:03:02;100192.69;;;15.83;58.60
70976;BME280;58635;51.198;6.010;2023-03-23T01:05:27;100185.66;;;15.83;58.56
70976;BME280;58635;51.198;6.010;2023-03-23T01:07:59;100170.00;;;15.83;58.70
70976;BME280;58635;51.198;6.010;2023-03-23T01:10:25;100180.44;;;15.83;58.73
70976;BME280;58635;51.198;6.010;2023-03-23T01:12:53;100171.03;;;15.82;58.65
70976;BME280;58635;51.198;6.010;2023-03-23T01:15:19;100152.25;;;15.80;58.62
70976;BME280;58635;51.198;6.010;2023-03-23T01:17:45;100147.34;;;15.84;58.79
70976;BME280;58635;51.198;6.010;2023-03-23T01:20:12;100162.72;;;15.85;58.76
70976;BME280;58635;51.198;6.010;2023-03-23T01:22:39;100153.59;;;15.83;58.93
70976;BME280;58635;51.198;6.010;2023-03-23T01:25:06;100141.56;;;15.82;58.66
70976;BME280;58635;51.198;6.010;2023-03-23T01:27:31;100127.25;;;15.84;58.84
70976;BME280;58635;51.198;6.010;2023-03-23T01:29:57;100138.47;;;15.85;59.00
70976;BME280;58635;51.198;6.010;2023-03-23T01:32:22;100148.13;;;15.84;58.86
70976;BME280;58635;51.198;6.010;2023-03-23T01:34:48;100147.34;;;15.84;59.25
70976;BME280;58635;51.198;6.010;2023-03-23T01:37:13;100126.72;;;15.82;59.02
70976;BME280;58635;51.198;6.010;2023-03-23T01:39:41;100139.75;;;15.82;59.05
70976;BME280;58635;51.198;6.010;2023-03-23T01:42:08;100141.31;;;15.83;59.20
70976;BME280;58635;51.198;6.010;2023-03-23T01:46:59;100143.41;;;15.81;59.35
70976;BME280;58635;51.198;6.010;2023-03-23T01:49:31;100151.22;;;15.81;59.19
70976;BME280;58635;51.198;6.010;2023-03-23T01:52:13;100136.59;;;15.80;59.14
70976;BME280;58635;51.198;6.010;2023-03-23T01:54:42;100125.41;;;15.79;59.25
70976;BME280;58635;51.198;6.010;2023-03-23T01:57:15;100144.97;;;15.82;59.20
70976;BME280;58635;51.198;6.010;2023-03-23T01:59:43;100135.81;;;15.79;59.21
70976;BME280;58635;51.198;6.010;2023-03-23T02:02:10;100138.91;;;15.76;59.50
70976;BME280;58635;51.198;6.010;2023-03-23T02:04:37;100135.53;;;15.76;59.47
70976;BME280;58635;51.198;6.010;2023-03-23T02:07:03;100127.94;;;15.74;59.68
70976;BME280;58635;51.198;6.010;2023-03-23T02:09:29;100126.34;;;15.73;59.63
70976;BME280;58635;51.198;6.010;2023-03-23T02:11:55;100129.19;;;15.72;59.74
70976;BME280;58635;51.198;6.010;2023-03-23T02:14:23;100129.44;;;15.70;59.84
70976;BME280;58635;51.198;6.010;2023-03-23T02:17:05;100138.31;;;15.69;59.71
70976;BME280;58635;51.198;6.010;2023-03-23T02:27:58;100113.25;;;15.68;59.68
70976;BME280;58635;51.198;6.010;2023-03-23T02:39:10;100109.47;;;15.59;59.98
70976;BME280;58635;51.198;6.010;2023-03-23T02:41:43;100105.53;;;15.57;60.19
70976;BME280;58635;51.198;6.010;2023-03-23T02:44:11;100113.34;;;15.57;60.17
70976;BME280;58635;51.198;6.010;2023-03-23T02:46:39;100109.25;;;15.61;60.43
70976;BME280;58635;51.198;6.010;2023-03-23T02:49:07;100092.03;;;15.60;60.22
70976;BME280;58635;51.198;6.010;2023-03-23T02:51:34;100088.41;;;15.61;60.25
70976;BME280;58635;51.198;6.010;2023-03-23T02:54:01;100091.78;;;15.61;60.31
70976;BME280;58635;51.198;6.010;2023-03-23T02:56:30;100093.38;;;15.62;60.35
70976;BME280;58635;51.198;6.010;2023-03-23T02:58:58;100090.44;;;15.59;60.33
70976;BME280;58635;51.198;6.010;2023-03-23T03:03:54;100084.22;;;15.60;60.52
70976;BME280;58635;51.198;6.010;2023-03-23T03:09:49;100076.63;;;15.58;60.58
70976;BME280;58635;51.198;6.010;2023-03-23T03:15:06;100076.41;;;15.60;60.36
70976;BME280;58635;51.198;6.010;2023-03-23T03:17:36;100088.88;;;15.58;60.59
70976;BME280;58635;51.198;6.010;2023-03-23T03:20:06;100096.16;;;15.56;60.72
70976;BME280;58635;51.198;6.010;2023-03-23T03:22:38;100081.03;;;15.58;60.46
70976;BME280;58635;51.198;6.010;2023-03-23T03:25:08;100077.41;;;15.59;60.47
70976;BME280;58635;51.198;6.010;2023-03-23T03:27:35;100076.63;;;15.58;60.49
70976;BME280;58635;51.198;6.010;2023-03-23T03:30:04;100075.03;;;15.57;60.45
70976;BME280;58635;51.198;6.010;2023-03-23T03:32:38;100077.66;;;15.57;60.33
70976;BME280;58635;51.198;6.010;2023-03-23T03:35:06;100070.63;;;15.58;60.38
70976;BME280;58635;51.198;6.010;2023-03-23T03:37:35;100078.19;;;15.59;60.28
70976;BME280;58635;51.198;6.010;2023-03-23T03:40:09;100085.63;;;15.50;60.64
70976;BME280;58635;51.198;6.010;2023-03-23T03:42:40;100094.03;;;15.53;60.47
70976;BME280;58635;51.198;6.010;2023-03-23T03:45:08;100090.63;;;15.52;60.46
70976;BME280;58635;51.198;6.010;2023-03-23T03:47:34;100082.03;;;15.52;60.51
70976;BME280;58635;51.198;6.010;2023-03-23T03:50:00;100077.34;;;15.54;60.23
70976;BME280;58635;51.198;6.010;2023-03-23T03:52:25;100081.53;;;15.55;60.45
70976;BME280;58635;51.198;6.010;2023-03-23T03:54:53;100096.16;;;15.56;60.59
70976;BME280;58635;51.198;6.010;2023-03-23T03:57:18;100095.34;;;15.55;60.48
70976;BME280;58635;51.198;6.010;2023-03-23T03:59:44;100090.16;;;15.55;60.37
70976;BME280;58635;51.198;6.010;2023-03-23T04:02:11;100104.50;;;15.58;60.55
70976;BME280;58635;51.198;6.010;2023-03-23T04:04:40;100094.56;;;15.55;60.26
70976;BME280;58635;51.198;6.010;2023-03-23T04:07:07;100090.38;;;15.54;60.49
70976;BME280;58635;51.198;6.010;2023-03-23T04:09:32;100096.88;;;15.51;60.53
70976;BME280;58635;51.198;6.010;2023-03-23T04:11:58;100105.50;;;15.52;60.51
70976;BME280;58635;51.198;6.010;2023-03-23T04:14:23;100089.06;;;15.51;60.49
70976;BME280;58635;51.198;6.010;2023-03-23T04:16:48;100094.81;;;15.53;60.42
70976;BME280;58635;51.198;6.010;2023-03-23T04:19:17;100092.75;;;15.55;60.31
70976;BME280;58635;51.198;6.010;2023-03-23T04:21:43;100095.34;;;15.55;60.41
70976;BME280;58635;51.198;6.010;2023-03-23T04:24:14;100104.75;;;15.56;60.25
70976;BME280;58635;51.198;6.010;2023-03-23T04:26:40;100100.31;;;15.57;60.23
70976;BME280;58635;51.198;6.010;2023-03-23T04:29:10;100112.31;;;15.58;60.11
70976;BME280;58635;51.198;6.010;2023-03-23T04:31:38;100103.97;;;15.56;60.19
70976;BME280;58635;51.198;6.010;2023-03-23T04:34:04;100098.75;;;15.56;60.25
70976;BME280;58635;51.198;6.010;2023-03-23T04:36:29;100106.03;;;15.54;60.06
70976;BME280;58635;51.198;6.010;2023-03-23T04:38:55;100109.97;;;15.56;59.93
70976;BME280;58635;51.198;6.010;2023-03-23T04:41:22;100104.47;;;15.53;60.03
70976;BME280;58635;51.198;6.010;2023-03-23T04:43:48;100105.25;;;15.53;59.98
70976;BME280;58635;51.198;6.010;2023-03-23T04:46:18;100116.44;;;15.54;59.92
70976;BME280;58635;51.198;6.010;2023-03-23T04:48:44;100109.19;;;15.56;59.95
70976;BME280;58635;51.198;6.010;2023-03-23T04:51:11;100124.28;;;15.54;59.86
70976;BME280;58635;51.198;6.010;2023-03-23T04:53:37;100117.72;;;15.51;59.79
70976;BME280;58635;51.198;6.010;2023-03-23T04:56:03;100128.38;;;15.49;59.76
70976;BME280;58635;51.198;6.010;2023-03-23T04:58:28;100131.75;;;15.50;59.70
70976;BME280;58635;51.198;6.010;2023-03-23T05:00:55;100132.56;;;15.50;59.56
70976;BME280;58635;51.198;6.010;2023-03-23T05:03:20;100126.81;;;15.48;59.57
70976;BME280;58635;51.198;6.010;2023-03-23T05:05:47;100128.63;;;15.48;59.60
70976;BME280;58635;51.198;6.010;2023-03-23T05:08:20;100141.66;;;15.48;59.51
70976;BME280;58635;51.198;6.010;2023-03-23T05:10:54;100149.22;;;15.49;59.35
70976;BME280;58635;51.198;6.010;2023-03-23T05:13:20;100140.63;;;15.49;59.39
70976;BME280;58635;51.198;6.010;2023-03-23T05:15:47;100146.84;;;15.48;59.33
70976;BME280;58635;51.198;6.010;2023-03-23T05:18:13;100139.28;;;15.46;59.30
70976;BME280;58635;51.198;6.010;2023-03-23T05:20:38;100136.44;;;15.48;59.06
70976;BME280;58635;51.198;6.010;2023-03-23T05:23:04;100144.78;;;15.50;59.09
70976;BME280;58635;51.198;6.010;2023-03-23T05:25:30;100142.19;;;15.50;58.84
70976;BME280;58635;51.198;6.010;2023-03-23T05:27:57;100138.78;;;15.49;58.67
70976;BME280;58635;51.198;6.010;2023-03-23T05:30:24;100138.00;;;15.49;58.76
70976;BME280;58635;51.198;6.010;2023-03-23T05:32:50;100128.63;;;15.48;58.60
70976;BME280;58635;51.198;6.010;2023-03-23T05:35:17;100135.91;;;15.46;58.49
70976;BME280;58635;51.198;6.010;2023-03-23T05:37:43;100139.28;;;15.46;58.41
70976;BME280;58635;51.198;6.010;2023-03-23T05:40:09;100135.66;;;15.47;58.41
70976;BME280;58635;51.198;6.010;2023-03-23T05:42:37;100137.47;;;15.47;58.27
70976;BME280;58635;51.198;6.010;2023-03-23T05:45:03;100142.69;;;15.47;58.39
70976;BME280;58635;51.198;6.010;2023-03-23T05:47:29;100156.25;;;15.49;58.15
70976;BME280;58635;51.198;6.010;2023-03-23T05:49:56;100155.47;;;15.48;57.94
70976;BME280;58635;51.198;6.010;2023-03-23T05:52:21;100155.22;;;15.50;58.01
70976;BME280;58635;51.198;6.010;2023-03-23T05:54:49;100149.00;;;15.51;57.74
70976;BME280;58635;51.198;6.010;2023-03-23T05:57:15;100157.81;;;15.50;57.65
70976;BME280;58635;51.198;6.010;2023-03-23T05:59:40;100153.41;;;15.50;57.65
70976;BME280;58635;51.198;6.010;2023-03-23T06:02:06;100161.00;;;15.52;57.35
70976;BME280;58635;51.198;6.010;2023-03-23T06:04:31;100168.59;;;15.54;57.26
70976;BME280;58635;51.198;6.010;2023-03-23T06:07:00;100158.69;;;15.56;57.20
70976;BME280;58635;51.198;6.010;2023-03-23T06:09:25;100167.63;;;15.60;57.02
70976;BME280;58635;51.198;6.010;2023-03-23T06:11:51;100152.00;;;15.60;56.81
70976;BME280;58635;51.198;6.010;2023-03-23T06:14:17;100149.94;;;15.62;56.91
70976;BME280;58635;51.198;6.010;2023-03-23T06:16:42;100153.56;;;15.61;56.83
70976;BME280;58635;51.198;6.010;2023-03-23T06:19:08;100147.91;;;15.64;56.79
70976;BME280;58635;51.198;6.010;2023-03-23T06:21:33;100145.81;;;15.66;56.67
70976;BME280;58635;51.198;6.010;2023-03-23T06:24:00;100151.03;;;15.66;56.78
70976;BME280;58635;51.198;6.010;2023-03-23T06:26:32;100154.44;;;15.66;56.78
70976;BME280;58635;51.198;6.010;2023-03-23T06:28:59;100164.13;;;15.71;56.45
70976;BME280;58635;51.198;6.010;2023-03-23T06:31:25;100165.69;;;15.72;56.36
70976;BME280;58635;51.198;6.010;2023-03-23T06:33:51;100167.84;;;15.75;56.36
70976;BME280;58635;51.198;6.010;2023-03-23T06:36:17;100174.94;;;15.79;56.39
70976;BME280;58635;51.198;6.010;2023-03-23T06:38:44;100177.84;;;15.83;56.32
70976;BME280;58635;51.198;6.010;2023-03-23T06:41:10;100177.13;;;15.88;56.23
70976;BME280;58635;51.198;6.010;2023-03-23T06:43:36;100178.94;;;15.87;56.22
70976;BME280;58635;51.198;6.010;2023-03-23T06:46:05;100185.25;;;15.91;56.24
70976;BME280;58635;51.198;6.010;2023-03-23T06:48:31;100186.28;;;15.90;56.30
70976;BME280;58635;51.198;6.010;2023-03-23T06:50:57;100194.91;;;15.91;56.22
70976;BME280;58635;51.198;6.010;2023-03-23T06:53:23;100203.00;;;15.94;56.30
70976;BME280;58635;51.198;6.010;2023-03-23T06:55:48;100210.03;;;15.94;56.13
70976;BME280;58635;51.198;6.010;2023-03-23T06:58:14;100211.88;;;15.93;56.33
70976;BME280;58635;51.198;6.010;2023-03-23T07:00:39;100203.56;;;15.96;56.02
70976;BME280;58635;51.198;6.010;2023-03-23T07:03:05;100194.69;;;15.97;56.20
70976;BME280;58635;51.198;6.010;2023-03-23T07:05:33;100196.06;;;16.00;56.07
70976;BME280;58635;51.198;6.010;2023-03-23T07:07:59;100204.16;;;16.03;56.22
70976;BME280;58635;51.198;6.010;2023-03-23T07:10:24;100193.97;;;16.02;56.20
70976;BME280;58635;51.198;6.010;2023-03-23T07:12:50;100196.09;;;16.05;55.97
70976;BME280;58635;51.198;6.010;2023-03-23T07:15:15;100192.22;;;16.07;56.06
70976;BME280;58635;51.198;6.010;2023-03-23T07:17:41;100199.56;;;16.11;55.88
70976;BME280;58635;51.198;6.010;2023-03-23T07:20:07;100195.44;;;16.15;55.93
70976;BME280;58635;51.198;6.010;2023-03-23T07:22:33;100192.06;;;16.19;55.60
70976;BME280;58635;51.198;6.010;2023-03-23T07:24:58;100196.50;;;16.19;55.20
70976;BME280;58635;51.198;6.010;2023-03-23T07:27:24;100198.34;;;16.18;55.40
70976;BME280;58635;51.198;6.010;2023-03-23T07:29:50;100199.66;;;16.21;55.33
70976;BME280;58635;51.198;6.010;2023-03-23T07:32:16;100211.91;;;16.20;55.35
70976;BME280;58635;51.198;6.010;2023-03-23T07:34:42;100209.31;;;16.20;55.44
70976;BME280;58635;51.198;6.010;2023-03-23T07:37:08;100209.88;;;16.22;55.36
70976;BME280;58635;51.198;6.010;2023-03-23T07:39:33;100202.34;;;16.26;55.16
70976;BME280;58635;51.198;6.010;2023-03-23T07:41:59;100202.88;;;16.28;55.26
70976;BME280;58635;51.198;6.010;2023-03-23T07:44:24;100210.22;;;16.31;54.98
70976;BME280;58635;51.198;6.010;2023-03-23T07:46:50;100207.13;;;16.34;54.86
70976;BME280;58635;51.198;6.010;2023-03-23T07:49:16;100208.47;;;16.36;54.74
70976;BME280;58635;51.198;6.010;2023-03-23T07:51:42;100211.59;;;16.38;54.93
70976;BME280;58635;51.198;6.010;2023-03-23T07:54:08;100213.22;;;16.45;54.39
70976;BME280;58635;51.198;6.010;2023-03-23T07:56:35;100216.41;;;16.47;54.73
70976;BME280;58635;51.198;6.010;2023-03-23T07:59:01;100220.88;;;16.51;54.52
70976;BME280;58635;51.198;6.010;2023-03-23T08:01:28;100222.25;;;16.59;54.33
70976;BME280;58635;51.198;6.010;2023-03-23T08:03:53;100215.78;;;16.66;54.01
70976;BME280;58635;51.198;6.010;2023-03-23T08:06:21;100215.78;;;16.66;53.88
70976;BME280;58635;51.198;6.010;2023-03-23T08:08:48;100219.53;;;16.71;54.03
70976;BME280;58635;51.198;6.010;2023-03-23T08:11:15;100212.53;;;16.76;53.64
70976;BME280;58635;51.198;6.010;2023-03-23T08:13:41;100224.88;;;16.86;53.36
70976;BME280;58635;51.198;6.010;2023-03-23T08:16:08;100239.56;;;16.92;52.92
70976;BME280;58635;51.198;6.010;2023-03-23T08:18:35;100217.94;;;16.97;53.17
70976;BME280;58635;51.198;6.010;2023-03-23T08:21:03;100222.44;;;17.06;52.94
70976;BME280;58635;51.198;6.010;2023-03-23T08:23:30;100223.00;;;17.13;52.69
70976;BME280;58635;51.198;6.010;2023-03-23T08:25:56;100239.28;;;17.20;52.22
70976;BME280;58635;51.198;6.010;2023-03-23T08:28:22;100233.59;;;17.29;52.36
70976;BME280;58635;51.198;6.010;2023-03-23T08:30:47;100247.19;;;17.31;51.64
70976;BME280;58635;51.198;6.010;2023-03-23T08:33:13;100240.59;;;17.23;51.51
70976;BME280;58635;51.198;6.010;2023-03-23T08:35:39;100242.88;;;17.14;51.90
70976;BME280;58635;51.198;6.010;2023-03-23T08:38:05;100242.84;;;17.09;52.06
70976;BME280;58635;51.198;6.010;2023-03-23T08:40:31;100245.19;;;17.06;52.16
70976;BME280;58635;51.198;6.010;2023-03-23T08:42:57;100244.63;;;17.04;51.80
70976;BME280;58635;51.198;6.010;2023-03-23T08:45:24;100247.69;;;16.95;52.15
70976;BME280;58635;51.198;6.010;2023-03-23T08:47:50;100246.84;;;16.90;52.46
70976;BME280;58635;51.198;6.010;2023-03-23T08:50:22;100257.31;;;16.90;52.52
70976;BME280;58635;51.198;6.010;2023-03-23T08:52:48;100283.63;;;16.83;52.55
70976;BME280;58635;51.198;6.010;2023-03-23T08:55:15;100328.22;;;16.77;53.63
70976;BME280;58635;51.198;6.010;2023-03-23T08:57:42;100316.84;;;16.66;54.15
70976;BME280;58635;51.198;6.010;2023-03-23T09:00:12;100326.63;;;16.54;54.99
70976;BME280;58635;51.198;6.010;2023-03-23T09:02:43;100341.31;;;16.38;55.18
70976;BME280;58635;51.198;6.010;2023-03-23T09:05:10;100348.72;;;16.24;55.66
70976;BME280;58635;51.198;6.010;2023-03-23T09:07:38;100354.03;;;16.13;55.83
70976;BME280;58635;51.198;6.010;2023-03-23T09:10:04;100354.44;;;16.04;56.30
70976;BME280;58635;51.198;6.010;2023-03-23T09:12:29;100352.47;;;15.95;56.58
70976;BME280;58635;51.198;6.010;2023-03-23T09:14:55;100345.28;;;15.85;56.94
70976;BME280;58635;51.198;6.010;2023-03-23T09:17:20;100356.38;;;15.75;56.96
70976;BME280;58635;51.198;6.010;2023-03-23T09:19:46;100360.94;;;15.68;57.16
70976;BME280;58635;51.198;6.010;2023-03-23T09:22:11;100355.88;;;15.62;57.32
70976;BME280;58635;51.198;6.010;2023-03-23T09:24:37;100357.50;;;15.51;57.70
70976;BME280;58635;51.198;6.010;2023-03-23T09:27:03;100363.19;;;15.48;57.75
70976;BME280;58635;51.198;6.010;2023-03-23T09:29:30;100361.53;;;15.42;58.03
70976;BME280;58635;51.198;6.010;2023-03-23T09:31:55;100365.41;;;15.39;57.99
70976;BME280;58635;51.198;6.010;2023-03-23T09:34:21;100352.03;;;15.36;58.17
70976;BME280;58635;51.198;6.010;2023-03-23T09:36:47;100355.44;;;15.36;58.23
70976;BME280;58635;51.198;6.010;2023-03-23T09:39:14;100357.47;;;15.34;58.36
70976;BME280;58635;51.198;6.010;2023-03-23T09:42:03;100368.38;;;15.31;58.34
70976;BME280;58635;51.198;6.010;2023-03-23T09:45:02;100351.41;;;15.29;58.51
70976;BME280;58635;51.198;6.010;2023-03-23T09:50:16;100357.84;;;15.26;58.59
70976;BME280;58635;51.198;6.010;2023-03-23T09:53:00;100352.25;;;15.17;59.16
70976;BME280;58635;51.198;6.010;2023-03-23T09:55:28;100359.63;;;15.09;59.04
70976;BME280;58635;51.198;6.010;2023-03-23T10:00:31;100355.22;;;15.09;59.17
70976;BME280;58635;51.198;6.010;2023-03-23T10:03:12;100359.97;;;15.12;59.10
70976;BME280;58635;51.198;6.010;2023-03-23T10:05:51;100357.91;;;15.14;59.15
70976;BME280;58635;51.198;6.010;2023-03-23T10:08:24;100367.88;;;15.17;59.12
70976;BME280;58635;51.198;6.010;2023-03-23T10:19:42;100356.78;;;15.56;58.64
70976;BME280;58635;51.198;6.010;2023-03-23T10:22:12;100362.50;;;15.69;58.46
70976;BME280;58635;51.198;6.010;2023-03-23T10:24:52;100372.00;;;15.75;58.50
70976;BME280;58635;51.198;6.010;2023-03-23T10:27:41;100372.31;;;15.79;58.28
70976;BME280;58635;51.198;6.010;2023-03-23T10:33:11;100370.31;;;15.86;58.22
70976;BME280;58635;51.198;6.010;2023-03-23T10:36:06;100368.22;;;16.00;58.24
70976;BME280;58635;51.198;6.010;2023-03-23T10:41:10;100371.41;;;16.07;57.73
70976;BME280;58635;51.198;6.010;2023-03-23T10:43:38;100385.19;;;16.02;57.90
70976;BME280;58635;51.198;6.010;2023-03-23T10:49:02;100387.09;;;15.90;58.26
70976;BME280;58635;51.198;6.010;2023-03-23T10:51:34;100385.13;;;15.81;58.56
70976;BME280;58635;51.198;6.010;2023-03-23T10:54:03;100384.94;;;15.70;58.49
70976;BME280;58635;51.198;6.010;2023-03-23T10:56:41;100377.06;;;15.65;58.73
70976;BME280;58635;51.198;6.010;2023-03-23T10:59:18;100388.63;;;15.58;58.93
70976;BME280;58635;51.198;6.010;2023-03-23T11:01:54;100383.66;;;15.56;59.27
70976;BME280;58635;51.198;6.010;2023-03-23T11:04:20;100373.59;;;15.48;59.46
70976;BME280;58635;51.198;6.010;2023-03-23T11:06:53;100365.78;;;15.48;59.73
70976;BME280;58635;51.198;6.010;2023-03-23T11:09:22;100379.22;;;15.57;59.69
70976;BME280;58635;51.198;6.010;2023-03-23T11:11:58;100375.56;;;15.69;59.71
70976;BME280;58635;51.198;6.010;2023-03-23T11:14:35;100382.50;;;15.81;59.55
70976;BME280;58635;51.198;6.010;2023-03-23T11:17:05;100376.81;;;15.84;59.43
70976;BME280;58635;51.198;6.010;2023-03-23T11:19:34;100377.44;;;15.91;59.57
70976;BME280;58635;51.198;6.010;2023-03-23T11:24:34;100361.06;;;16.12;59.25
70976;BME280;58635;51.198;6.010;2023-03-23T11:27:00;100371.97;;;16.26;59.09
70976;BME280;58635;51.198;6.010;2023-03-23T11:29:28;100371.06;;;16.37;58.96
70976;BME280;58635;51.198;6.010;2023-03-23T11:34:30;100355.72;;;16.62;58.43
70976;BME280;58635;51.198;6.010;2023-03-23T11:37:09;100365.53;;;16.72;58.43
70976;BME280;58635;51.198;6.010;2023-03-23T11:39:56;100363.81;;;16.83;58.46
70976;BME280;58635;51.198;6.010;2023-03-23T11:47:43;100381.84;;;17.06;57.77
70976;BME280;58635;51.198;6.010;2023-03-23T11:50:26;100373.09;;;16.95;58.02
70976;BME280;58635;51.198;6.010;2023-03-23T11:53:08;100365.94;;;16.86;58.30
70976;BME280;58635;51.198;6.010;2023-03-23T11:58:17;100365.78;;;16.71;58.78
70976;BME280;58635;51.198;6.010;2023-03-23T12:00:55;100365.81;;;16.76;58.71
70976;BME280;58635;51.198;6.010;2023-03-23T12:03:22;100372.72;;;16.87;58.62
70976;BME280;58635;51.198;6.010;2023-03-23T12:06:01;100381.22;;;16.99;58.88
70976;BME280;58635;51.198;6.010;2023-03-23T12:20:01;100367.38;;;16.99;59.04
70976;BME280;58635;51.198;6.010;2023-03-23T12:23:08;100362.50;;;17.07;59.03
70976;BME280;58635;51.198;6.010;2023-03-23T12:25:43;100356.59;;;17.17;58.96
70976;BME280;58635;51.198;6.010;2023-03-23T12:30:55;100365.72;;;17.41;58.37
70976;BME280;58635;51.198;6.010;2023-03-23T12:47:42;100351.75;;;17.95;57.22
70976;BME280;58635;51.198;6.010;2023-03-23T12:56:02;100336.31;;;17.98;57.28
70976;BME280;58635;51.198;6.010;2023-03-23T12:58:34;100323.56;;;18.07;56.91
70976;BME280;58635;51.198;6.010;2023-03-23T13:01:10;100332.75;;;18.15;57.08
70976;BME280;58635;51.198;6.010;2023-03-23T13:03:44;100324.13;;;18.19;56.81
70976;BME280;58635;51.198;6.010;2023-03-23T13:11:35;100334.22;;;18.53;56.13
70976;BME280;58635;51.198;6.010;2023-03-23T13:14:13;100333.97;;;18.49;56.14
70976;BME280;58635;51.198;6.010;2023-03-23T13:17:18;100340.72;;;18.40;56.61
70976;BME280;58635;51.198;6.010;2023-03-23T13:22:53;100342.88;;;18.53;56.60
70976;BME280;58635;51.198;6.010;2023-03-23T13:25:28;100354.09;;;18.44;56.63
70976;BME280;58635;51.198;6.010;2023-03-23T13:28:02;100351.19;;;18.40;56.18
70976;BME280;58635;51.198;6.010;2023-03-23T13:30:28;100341.75;;;18.34;56.26
70976;BME280;58635;51.198;6.010;2023-03-23T13:33:05;100336.50;;;18.34;56.71
70976;BME280;58635;51.198;6.010;2023-03-23T13:35:36;100343.34;;;18.40;56.46
70976;BME280;58635;51.198;6.010;2023-03-23T13:38:13;100348.38;;;18.52;56.71
70976;BME280;58635;51.198;6.010;2023-03-23T13:40:44;100348.16;;;18.63;56.36
70976;BME280;58635;51.198;6.010;2023-03-23T13:43:11;100338.56;;;18.84;56.32
70976;BME280;58635;51.198;6.010;2023-03-23T13:45:44;100345.63;;;18.94;55.56
70976;BME280;58635;51.198;6.010;2023-03-23T13:53:42;100339.31;;;18.80;54.65
70976;BME280;58635;51.198;6.010;2023-03-23T13:58:44;100327.75;;;18.70;54.32
70976;BME280;58635;51.198;6.010;2023-03-23T14:01:13;100329.59;;;18.65;54.53
70976;BME280;58635;51.198;6.010;2023-03-23T14:03:43;100332.44;;;18.63;54.61
70976;BME280;58635;51.198;6.010;2023-03-23T14:06:16;100317.25;;;18.60;54.26
70976;BME280;58635;51.198;6.010;2023-03-23T14:08:45;100332.09;;;18.45;54.56
70976;BME280;58635;51.198;6.010;2023-03-23T14:11:29;100317.94;;;18.35;54.84
70976;BME280;58635;51.198;6.010;2023-03-23T14:14:03;100326.06;;;18.39;55.09
70976;BME280;58635;51.198;6.010;2023-03-23T14:19:02;100345.34;;;18.23;55.39
70976;BME280;58635;51.198;6.010;2023-03-23T14:21:39;100342.97;;;18.16;55.60
70976;BME280;58635;51.198;6.010;2023-03-23T14:24:22;100342.13;;;18.05;56.26
70976;BME280;58635;51.198;6.010;2023-03-23T14:26:49;100332.13;;;17.97;56.46
70976;BME280;58635;51.198;6.010;2023-03-23T14:29:18;100333.16;;;17.96;57.19
70976;BME280;58635;51.198;6.010;2023-03-23T14:31:44;100311.72;;;17.99;57.33
70976;BME280;58635;51.198;6.010;2023-03-23T14:34:18;100310.72;;;18.05;57.21
70976;BME280;58635;51.198;6.010;2023-03-23T14:36:44;100305.22;;;18.02;57.70
70976;BME280;58635;51.198;6.010;2023-03-23T14:39:19;100298.94;;;18.03;57.22
70976;BME280;58635;51.198;6.010;2023-03-23T14:41:46;100283.50;;;18.01;57.22
70976;BME280;58635;51.198;6.010;2023-03-23T14:44:21;100283.25;;;18.03;57.14
70976;BME280;58635;51.198;6.010;2023-03-23T14:46:47;100269.91;;;18.04;56.84
70976;BME280;58635;51.198;6.010;2023-03-23T14:49:16;100267.81;;;18.06;56.71
70976;BME280;58635;51.198;6.010;2023-03-23T14:51:50;100264.38;;;18.01;56.86
70976;BME280;58635;51.198;6.010;2023-03-23T14:54:21;100270.13;;;17.98;57.40
70976;BME280;58635;51.198;6.010;2023-03-23T14:56:47;100273.75;;;17.92;56.91